Sven Haas

Скаут - VfB Stuttgart
17 Фев 2028
Четверг
Продолжить

Характер

Адаптивность (2) Амбиции (3) Скандальность (19) Верность (6) Стрессоустойчивость (7) Профессионализм (9) Благородство (2) Темперамент (12)

Профиль

Стиль управления Демократичный
Лицензия Национальная A
Решительность 15
Управление людьми 11
Мотивация 12
Дисциплина 9
Удовлетворённость
100%
Усталость
0%
Должность Скаут
Зарплата 34.3K в нед.
Контракт 14.03.2030

Производительность

Поведение Хорошее
Эффективность тренировок
55%
Развитие игроков
35%
Профилактика травм
70%
Тактическая реализация
55%

Недавние события

Участвовал в селекционном совещании 7 дн. назад
Рекомендовал трансферную цель 7 дн. назад
Участвовал в селекционном совещании 14 дн. назад
Рекомендовал трансферную цель 14 дн. назад
Посетил матч 14 дн. назад
Участвовал в селекционном совещании 21 дн. назад
Представил досье руководству 21 дн. назад
Посетил матч 21 дн. назад

Текущее наблюдение

90
Игрок Клуб Статус Способность Уверенность Наблюдений Последнее наблюдение Последний голос
Giacomo Bonaventura Borussia Dortmund Упущен 143 / 144 72% 1 17.01.2028 За
Christian Günter SC Freiburg Упущен 139 / 132 72% 1 10.01.2028 За
Ethan Nwaneri Arsenal Активный 153 / 159 40% 1 10.01.2028 -
Luca Williams-Barnett Tranmere Rovers Переговоры 126 / 122 40% 1 10.01.2028 -
Josh Nichols Tranmere Rovers Активный 118 / 118 40% 1 10.01.2028 -
Josh Keeley Tigres Активный 137 / 142 40% 2 31.12.2027 -
Joe Whitworth Stockport County Активный 123 / 120 40% 1 31.12.2027 -
Christ Inao Oulaï Fiorentina Активный 138 / 137 40% 2 16.08.2027 -
Marc Bernal Real Sociedad Активный 150 / 160 40% 2 16.08.2027 -
Jesús Rodríguez Como Активный 155 / 145 40% 1 16.08.2027 -
Sergio Barlocco Trento Активный 110 / 124 40% 2 10.08.2027 -
Robin Roefs Sunderland Активный 149 / 152 40% 1 10.08.2027 -
Walid Juma Al Shaab Активный 117 / 106 40% 1 10.08.2027 -
Matías Gómez Granada Активный 120 / 125 40% 2 27.07.2027 -
Yusi Alavés Активный 130 / 133 40% 2 27.07.2027 -
Josh King Chelsea Активный 147 / 141 40% 1 19.07.2027 -
Jan Bürger Gillingham Активный 106 / 122 40% 1 31.05.2027 -
Niklas Steffen Thun Активный 114 / 116 40% 1 18.01.2027 -
Bradley Mabunda SuperSport United Активный 105 / 104 40% 1 18.01.2027 -
Ousmane Dembélé Paris Saint-Germain Активный 192 / 176 40% 4 31.12.2026 -
Ferran Torres Paris Saint-Germain Активный 167 / 170 40% 2 31.12.2026 -
Álex Baena Atlético Madrid Активный 162 / 160 40% 3 30.12.2026 -
Gavi Barcelona Активный 152 / 156 40% 4 30.12.2026 -
Marcus Rashford Manchester United Активный 165 / 148 40% 1 30.12.2026 -
Alejandro Grimaldo Atlético Madrid Активный 164 / 159 40% 2 28.12.2026 -
Matheus Cunha Manchester United Активный 165 / 161 40% 2 28.12.2026 -
Nico Williams Athletic Bilbao Активный 173 / 171 40% 5 28.12.2026 -
Cody Gakpo Liverpool Активный 159 / 153 40% 2 28.12.2026 -
Ozziel Herrera Tigres Активный 130 / 130 40% 1 28.12.2026 -
Matt O'Riley Brighton Активный 144 / 151 40% 3 26.12.2026 -
Nicolas Jackson Aston Villa Активный 153 / 141 40% 2 26.12.2026 -
Martin Ødegaard Arsenal Активный 171 / 169 40% 3 23.12.2026 -
Kai Havertz Arsenal Активный 157 / 153 40% 9 23.12.2026 -
João Pedro Chelsea Активный 148 / 157 40% 3 23.12.2026 -
Kang-In Lee Atlético Madrid Активный 161 / 166 40% 4 22.12.2026 -
Kiernan Dewsbury-Hall Everton Активный 154 / 145 40% 2 22.12.2026 -
Mason Mount Manchester United Активный 162 / 159 40% 2 21.12.2026 -
Marco Asensio Fenerbahce Упущен 163 / 160 40% 2 20.12.2026 -
Callum Hudson-Odoi Nottingham Forest Активный 143 / 158 40% 1 17.12.2026 -
Pablo Barrios Atlético Madrid Активный 156 / 163 40% 2 15.12.2026 -
Andrés Martín Racing Santander Активный 133 / 130 40% 4 15.12.2026 -
Gabriel Martinelli Brighton Активный 160 / 160 40% 4 12.12.2026 -
Maurits Kjærgaard Red Bull Salzburg Активный 126 / 126 40% 1 12.12.2026 -
Thiago Brentford Активный 141 / 148 40% 1 12.12.2026 -
Juan-José Perea Zurich Активный 127 / 124 40% 2 11.12.2026 -
Jonathan Dubasin Osasuna Активный 146 / 140 40% 1 11.12.2026 -
Tani Oluwaseyi Villarreal Активный 145 / 138 40% 1 10.12.2026 -
Ibrahim Salah Basel Активный 125 / 129 40% 1 06.12.2026 -
Philippe Keny Zurich Активный 125 / 116 40% 1 05.12.2026 -
Johnny Cardoso Atlético Madrid Активный 162 / 153 40% 3 03.12.2026 -
Ademola Lookman Atlético Madrid Активный 151 / 152 40% 2 03.12.2026 -
Álex Berenguer Athletic Bilbao Активный 145 / 145 40% 2 01.12.2026 -
Iliman N'Diaye Everton Активный 153 / 153 40% 2 01.12.2026 -
Rômulo RB Leipzig Активный 138 / 137 40% 1 01.12.2026 -
Themba Ngcobo SuperSport United Активный 106 / 128 40% 2 27.11.2026 -
Georginio Rutter Brighton Активный 148 / 141 40% 2 24.11.2026 -
Declan Rice Arsenal Активный 186 / 182 40% 3 23.11.2026 -
Sinan Karweina Luzern Активный 112 / 113 40% 1 20.11.2026 -
Sandro Tonali Tottenham Активный 164 / 170 40% 4 19.11.2026 -
Alexis Mac Allister Liverpool Активный 170 / 153 40% 5 14.11.2026 -
Luis Díaz Bayern Munich Активный 176 / 163 40% 1 09.11.2026 -
Ez Abde Girona Активный 140 / 156 40% 1 02.11.2026 -
Ayo Akinola Vaduz Активный 111 / 116 40% 1 31.10.2026 -
Carlos Vicente Birmingham Активный 146 / 144 40% 1 29.10.2026 -
Oihan Sancet Athletic Bilbao Активный 166 / 157 40% 1 27.10.2026 -
Aimar Osasuna Активный 155 / 144 40% 1 22.10.2026 -
Sota Kitano Luzern Активный 117 / 133 40% 2 18.10.2026 -
Rayan Cherki Manchester City Активный 170 / 162 40% 2 13.10.2026 -
Rilind Nivokazi Sion Активный 118 / 118 40% 1 08.10.2026 -
Rafael Navarro St. Louis CITY SC Активный 129 / 123 40% 1 07.10.2026 -
Jérémy Doku Manchester City Активный 167 / 172 40% 2 30.09.2026 -
Santi Comesaña Villarreal Активный 148 / 157 40% 1 29.09.2026 -
Aurélien Tchouaméni Real Madrid Активный 174 / 160 40% 2 26.09.2026 -
Ryan Gravenberch Liverpool Активный 163 / 162 40% 1 26.09.2026 -
Nadiem Amiri Mainz 05 Активный 147 / 151 40% 1 23.09.2026 -
Moisés Caicedo Chelsea Активный 173 / 169 40% 2 22.09.2026 -
Ibrahima Konaté Real Madrid Активный 166 / 151 40% 1 22.09.2026 -
Matheus Nunes Manchester City Активный 165 / 164 40% 1 21.09.2026 -
Nico Schlotterbeck Borussia Dortmund Активный 164 / 160 40% 1 19.09.2026 -
Adam Wharton Crystal Palace Активный 154 / 150 40% 1 19.09.2026 -
Dominik Szoboszlai Liverpool Активный 170 / 160 40% 1 19.09.2026 -
Eduardo Camavinga Real Madrid Активный 155 / 165 40% 1 19.09.2026 -
Xaver Schlager Nottingham Forest Активный 147 / 153 40% 1 16.09.2026 -
Mats Wieffer Brighton Активный 146 / 145 40% 1 16.09.2026 -
Aleksandar Pavlović Bayern Munich Активный 142 / 156 40% 1 15.09.2026 -
Martín Zubimendi Arsenal Активный 153 / 165 40% 1 14.09.2026 -
Xavi Simons Tottenham Активный 162 / 151 40% 1 14.09.2026 -
Jan Paul van Hecke Tottenham Активный 150 / 165 40% 1 11.09.2026 -
Sven Botman Newcastle United Активный 157 / 163 40% 1 11.09.2026 -
Tyler Adams Bournemouth Активный 151 / 160 40% 1 08.09.2026 -